Time;durP1;ratioP1;P1;durP2;ratioP2;P2;SDS_P1;SDS_P2;PMS_P1;PMS_P2;Temp;Humidity;BMP_temperature;BMP_pressure;BME280_temperature;BME280_humidity;BME280_pressure;Samples;Min_cycle;Max_cycle;Signal;HPM_P1;HPM_P2
2022/11/29 06:00:50;;;;;;;4.30;3.90;;;9.60;97.20;;;;;;1726116;28;20208;-74
2022/11/29 06:01:50;;;;;;;4.68;3.90;;;9.60;97.20;;;;;;1727676;28;20227;-74
2022/11/29 06:02:50;;;;;;;4.93;3.70;;;9.60;97.20;;;;;;1727780;28;20207;-75
2022/11/29 06:03:52;;;;;;;4.00;3.55;;;9.60;97.20;;;;;;1727713;28;20227;-75
2022/11/29 06:05:05;;;;;;;4.10;3.60;;;9.60;97.20;;;;;;1725717;28;20217;-74
2022/11/29 06:05:59;;;;;;;3.50;3.20;;;9.60;97.20;;;;;;1721123;28;20352;-75
2022/11/29 06:06:58;;;;;;;3.75;3.45;;;9.60;97.20;;;;;;1724225;28;20550;-75
2022/11/29 06:07:55;;;;;;;5.40;3.55;;;9.60;97.20;;;;;;1727904;28;20197;-75
2022/11/29 06:08:55;;;;;;;4.50;3.30;;;9.70;97.20;;;;;;1727172;28;20212;-75
2022/11/29 06:09:52;;;;;;;3.47;3.17;;;9.70;97.20;;;;;;1727694;28;20196;-75
2022/11/29 06:10:56;;;;;;;3.60;3.30;;;9.70;97.20;;;;;;1725585;28;20243;-74
2022/11/29 06:11:51;;;;;;;3.42;3.13;;;9.70;97.20;;;;;;1721237;28;20236;-75
2022/11/29 06:12:48;;;;;;;3.67;3.17;;;9.70;97.20;;;;;;1721169;28;20190;-75
2022/11/29 06:13:53;;;;;;;5.10;3.65;;;9.70;97.20;;;;;;1721024;28;20212;-75
2022/11/29 06:15:04;;;;;;;3.55;3.10;;;9.70;97.20;;;;;;1720996;28;20194;-75
2022/11/29 06:16:21;;;;;;;5.20;3.10;;;9.70;97.20;;;;;;1721020;28;20264;-75
2022/11/29 06:17:29;;;;;;;5.72;3.40;;;9.70;97.20;;;;;;1720793;28;20259;-75
2022/11/29 06:18:35;;;;;;;5.32;4.10;;;9.70;97.20;;;;;;1721030;28;20248;-75
2022/11/29 06:20:13;;;;;;;5.03;3.60;;;9.80;97.20;;;;;;1720927;28;20178;-75
2022/11/29 06:21:21;;;;;;;5.32;3.72;;;9.70;97.20;;;;;;1699595;29;20207;-75
2022/11/29 06:22:36;;;;;;;4.70;3.35;;;9.80;97.20;;;;;;1721044;28;20202;-75
2022/11/29 06:23:57;;;;;;;6.00;3.40;;;9.80;97.20;;;;;;1724835;28;20207;-74
2022/11/29 06:25:02;;;;;;;4.13;3.17;;;9.80;97.20;;;;;;1727665;28;20224;-75
2022/11/29 06:26:09;;;;;;;4.07;3.53;;;9.80;97.20;;;;;;1727507;28;20201;-75
2022/11/29 06:27:13;;;;;;;5.93;3.50;;;9.80;97.20;;;;;;1727406;28;20654;-73
2022/11/29 06:28:24;;;;;;;6.25;3.70;;;9.80;97.20;;;;;;1727590;28;20216;-73
2022/11/29 06:29:35;;;;;;;3.75;3.40;;;9.70;97.20;;;;;;1727603;28;20200;-73
2022/11/29 06:30:37;;;;;;;3.45;3.15;;;9.80;97.20;;;;;;1727439;28;20712;-74
2022/11/29 06:31:36;;;;;;;4.20;3.55;;;9.70;97.20;;;;;;1727469;28;20247;-76
2022/11/29 06:32:35;;;;;;;4.60;3.67;;;9.70;97.20;;;;;;1727730;28;20224;-76
2022/11/29 06:33:36;;;;;;;4.68;4.18;;;9.70;97.20;;;;;;1727686;28;20569;-74
2022/11/29 06:34:36;;;;;;;4.30;3.67;;;9.70;97.20;;;;;;1727643;28;20204;-74
2022/11/29 06:35:38;;;;;;;8.13;4.70;;;9.70;97.20;;;;;;1727484;28;20710;-74
2022/11/29 06:36:34;;;;;;;5.38;4.20;;;9.70;97.20;;;;;;1727667;28;20216;-74
2022/11/29 06:37:31;;;;;;;6.70;4.80;;;9.70;97.20;;;;;;1727518;28;20192;-74
2022/11/29 06:38:26;;;;;;;7.03;5.15;;;9.70;97.20;;;;;;1727174;28;20203;-73
2022/11/29 06:39:18;;;;;;;7.75;5.90;;;9.70;97.20;;;;;;1727373;28;20641;-74
2022/11/29 06:40:10;;;;;;;6.60;4.70;;;9.70;97.20;;;;;;1727149;28;20193;-74
2022/11/29 06:41:02;;;;;;;6.45;5.20;;;9.70;97.20;;;;;;1727265;28;20793;-74
2022/11/29 06:41:53;;;;;;;5.70;5.10;;;9.70;97.20;;;;;;1727466;28;20212;-74
2022/11/29 06:42:45;;;;;;;7.20;6.00;;;9.70;97.20;;;;;;1727042;28;20215;-74
2022/11/29 06:43:36;;;;;;;7.13;5.47;;;9.70;97.20;;;;;;1726920;28;20451;-74
2022/11/29 06:44:28;;;;;;;6.45;5.68;;;9.80;97.20;;;;;;1727176;28;20192;-74
2022/11/29 06:45:20;;;;;;;6.40;5.72;;;9.80;97.20;;;;;;1726718;28;20196;-74
2022/11/29 06:46:20;;;;;;;4.88;4.40;;;9.80;97.20;;;;;;1727271;28;20465;-74
2022/11/29 06:47:22;;;;;;;5.43;4.90;;;9.80;97.20;;;;;;1727385;28;20232;-74
2022/11/29 06:48:18;;;;;;;5.30;4.80;;;9.80;97.20;;;;;;1727659;28;20189;-74
2022/11/29 06:49:14;;;;;;;5.22;4.72;;;9.80;97.20;;;;;;1727149;28;20287;-74
2022/11/29 06:50:21;;;;;;;5.38;4.88;;;9.80;97.20;;;;;;1727097;28;20197;-74
2022/11/29 06:51:19;;;;;;;4.78;4.38;;;9.80;97.20;;;;;;1727694;28;20199;-74
2022/11/29 06:52:22;;;;;;;5.55;4.60;;;9.80;97.20;;;;;;1727608;28;20215;-74
2022/11/29 06:53:18;;;;;;;5.60;5.00;;;9.80;97.20;;;;;;1727627;28;20189;-74
2022/11/29 06:54:28;;;;;;;5.50;5.00;;;9.80;97.20;;;;;;1727459;28;20196;-74
2022/11/29 06:55:26;;;;;;;7.88;5.97;;;9.80;97.20;;;;;;1727494;28;20582;-74
2022/11/29 06:56:26;;;;;;;6.55;5.97;;;9.70;97.20;;;;;;1727051;28;20184;-73
2022/11/29 06:57:23;;;;;;;5.95;5.45;;;9.70;97.20;;;;;;1726899;28;20193;-74
2022/11/29 06:58:33;;;;;;;6.78;6.10;;;9.70;97.20;;;;;;1720788;28;20259;-75
2022/11/29 06:59:37;;;;;;;5.75;5.25;;;9.70;97.20;;;;;;1725964;28;20197;-74
2022/11/29 07:00:37;;;;;;;7.10;6.50;;;9.70;97.20;;;;;;1727371;28;20589;-74
2022/11/29 07:01:38;;;;;;;5.82;5.38;;;9.70;97.20;;;;;;1727478;28;20205;-74
2022/11/29 07:02:50;;;;;;;5.93;5.53;;;9.70;97.20;;;;;;1727553;28;20189;-74
2022/11/29 07:04:02;;;;;;;5.13;4.65;;;9.70;97.20;;;;;;1720672;28;20216;-74
2022/11/29 07:05:02;;;;;;;6.15;5.68;;;9.70;97.20;;;;;;1720698;28;20639;-74
2022/11/29 07:05:54;;;;;;;4.95;4.55;;;9.70;97.20;;;;;;1725232;28;20271;-75
2022/11/29 07:06:46;;;;;;;5.50;4.93;;;9.70;97.20;;;;;;1723940;28;20662;-75
2022/11/29 07:07:39;;;;;;;6.03;4.68;;;9.70;97.20;;;;;;1720271;28;20251;-75
2022/11/29 07:08:30;;;;;;;4.70;4.25;;;9.70;97.20;;;;;;1719797;28;20208;-75
2022/11/29 07:09:28;;;;;;;4.40;4.00;;;9.70;97.20;;;;;;1720244;28;20283;-74
2022/11/29 07:10:20;;;;;;;4.75;3.95;;;9.70;97.20;;;;;;1720112;28;20209;-75
2022/11/29 07:11:14;;;;;;;5.00;4.50;;;9.70;97.20;;;;;;1720427;28;20675;-75
2022/11/29 07:12:05;;;;;;;6.70;5.43;;;9.70;97.20;;;;;;1719933;28;20205;-75
2022/11/29 07:12:58;;;;;;;6.03;5.47;;;9.70;97.20;;;;;;1720050;28;20702;-76
2022/11/29 07:13:49;;;;;;;5.78;4.90;;;9.70;97.20;;;;;;1725557;28;20197;-77
2022/11/29 07:14:41;;;;;;;5.80;5.40;;;9.70;97.20;;;;;;1726954;28;20209;-77
2022/11/29 07:15:34;;;;;;;5.47;5.07;;;9.70;97.20;;;;;;1726579;28;20204;-75
2022/11/29 07:16:31;;;;;;;5.03;4.60;;;9.70;97.20;;;;;;1727045;28;20192;-77
2022/11/29 07:17:29;;;;;;;5.72;5.20;;;9.70;97.20;;;;;;1727311;28;20203;-77
2022/11/29 07:18:31;;;;;;;5.38;4.70;;;9.70;97.20;;;;;;1727090;28;20689;-76
2022/11/29 07:19:32;;;;;;;7.65;5.10;;;9.70;97.20;;;;;;1726735;28;20219;-76
2022/11/29 07:20:32;;;;;;;4.70;4.20;;;9.70;97.20;;;;;;1726705;28;20200;-77
2022/11/29 07:21:33;;;;;;;4.30;3.90;;;9.70;97.20;;;;;;1727381;28;20554;-76
2022/11/29 07:22:41;;;;;;;4.20;3.90;;;9.70;97.20;;;;;;1727295;28;20207;-76
2022/11/29 07:23:34;;;;;;;4.25;3.85;;;9.70;97.20;;;;;;1727397;28;20189;-76
2022/11/29 07:24:40;;;;;;;4.22;3.92;;;9.70;97.20;;;;;;1726616;28;20631;-76
2022/11/29 07:25:42;;;;;;;4.20;3.75;;;9.70;97.20;;;;;;1726988;28;20209;-76
2022/11/29 07:26:43;;;;;;;5.00;4.50;;;9.70;97.20;;;;;;1727150;28;20200;-77
2022/11/29 07:27:42;;;;;;;6.35;4.55;;;9.80;97.20;;;;;;1727357;28;20204;-77
2022/11/29 07:28:43;;;;;;;4.70;4.30;;;9.80;97.20;;;;;;1726907;28;20208;-76
2022/11/29 07:29:45;;;;;;;4.18;3.80;;;9.80;97.20;;;;;;1727374;28;20205;-76
2022/11/29 07:30:45;;;;;;;4.40;4.10;;;9.80;97.20;;;;;;1727197;28;20764;-76
2022/11/29 07:31:51;;;;;;;5.38;4.00;;;9.80;97.20;;;;;;1727388;28;20192;-77
2022/11/29 07:32:53;;;;;;;4.90;3.85;;;9.80;97.20;;;;;;1727178;28;20563;-76
2022/11/29 07:33:55;;;;;;;4.60;4.20;;;9.80;97.20;;;;;;1727287;28;20212;-77
2022/11/29 07:34:59;;;;;;;4.90;3.83;;;9.80;97.20;;;;;;1727257;28;20201;-76
2022/11/29 07:36:00;;;;;;;4.20;3.90;;;9.80;97.20;;;;;;1720557;28;20213;-76
2022/11/29 07:37:01;;;;;;;4.22;3.92;;;9.80;97.20;;;;;;1720445;28;20193;-76
2022/11/29 07:38:01;;;;;;;5.30;4.30;;;9.80;97.20;;;;;;1720663;28;20186;-76
2022/11/29 07:39:03;;;;;;;5.50;4.25;;;9.80;97.20;;;;;;1720007;28;20674;-77
2022/11/29 07:40:01;;;;;;;4.72;4.28;;;9.80;97.20;;;;;;1722548;28;20217;-75
2022/11/29 07:40:59;;;;;;;4.95;4.50;;;9.80;97.20;;;;;;1727316;28;20220;-76
2022/11/29 07:42:00;;;;;;;5.70;4.18;;;9.80;97.20;;;;;;1727273;28;20208;-76
2022/11/29 07:43:04;;;;;;;5.82;4.07;;;9.80;97.20;;;;;;1727312;28;20216;-76
2022/11/29 07:44:05;;;;;;;4.43;4.03;;;9.80;97.20;;;;;;1727301;28;20200;-76
2022/11/29 07:45:01;;;;;;;4.70;4.30;;;9.80;97.20;;;;;;1727064;28;20193;-77
2022/11/29 07:45:54;;;;;;;4.22;3.92;;;9.90;97.20;;;;;;1720538;28;20194;-76
2022/11/29 07:46:44;;;;;;;4.88;4.47;;;9.90;97.20;;;;;;1720086;28;20584;-76
2022/11/29 07:47:36;;;;;;;4.93;4.30;;;9.90;97.20;;;;;;1720491;28;20567;-76
2022/11/29 07:48:27;;;;;;;4.65;4.25;;;9.90;97.20;;;;;;1719965;28;20201;-76
2022/11/29 07:49:20;;;;;;;5.80;4.10;;;9.90;97.20;;;;;;1720374;28;20708;-76
2022/11/29 07:50:11;;;;;;;4.18;3.78;;;9.90;97.20;;;;;;1720352;28;20209;-76
2022/11/29 07:51:03;;;;;;;4.03;3.72;;;9.90;97.20;;;;;;1720410;28;20231;-76
2022/11/29 07:51:54;;;;;;;5.30;4.53;;;9.90;97.20;;;;;;1720505;28;20209;-76
2022/11/29 07:52:46;;;;;;;4.50;4.20;;;9.90;97.20;;;;;;1720386;28;20571;-76
2022/11/29 07:53:41;;;;;;;4.60;4.30;;;9.90;97.20;;;;;;1720371;28;20220;-77
2022/11/29 07:54:33;;;;;;;4.78;4.30;;;9.90;97.20;;;;;;1720511;28;20194;-76
2022/11/29 07:55:24;;;;;;;4.13;3.72;;;9.90;97.20;;;;;;1723799;28;20189;-76
2022/11/29 07:56:16;;;;;;;4.05;3.75;;;10.00;97.20;;;;;;1727183;28;20196;-76
2022/11/29 07:57:07;;;;;;;5.20;4.80;;;10.00;97.20;;;;;;1727062;28;20207;-76
2022/11/29 07:57:59;;;;;;;5.07;4.47;;;10.00;97.20;;;;;;1727231;28;20200;-76
2022/11/29 07:58:49;;;;;;;4.20;3.80;;;10.00;97.20;;;;;;1726756;28;20670;-76
2022/11/29 07:59:41;;;;;;;4.93;4.60;;;10.00;97.20;;;;;;1727186;28;20678;-76
2022/11/29 08:00:32;;;;;;;4.93;4.53;;;10.00;97.20;;;;;;1727195;28;20220;-77
2022/11/29 08:01:23;;;;;;;4.87;4.50;;;10.00;97.20;;;;;;1727075;28;20216;-76
2022/11/29 08:02:24;;;;;;;5.47;5.07;;;10.00;97.20;;;;;;1727205;28;20590;-76
2022/11/29 08:03:16;;;;;;;6.25;5.75;;;10.00;97.20;;;;;;1727313;28;20224;-76
2022/11/29 08:04:07;;;;;;;6.18;5.63;;;10.00;97.20;;;;;;1727277;28;20211;-76
2022/11/29 08:05:00;;;;;;;5.97;5.45;;;10.00;97.20;;;;;;1726972;28;20197;-76
2022/11/29 08:05:51;;;;;;;6.30;5.72;;;10.00;97.20;;;;;;1723351;28;20200;-76
2022/11/29 08:06:43;;;;;;;6.37;5.83;;;10.10;97.20;;;;;;1726965;28;20235;-76
2022/11/29 08:07:34;;;;;;;5.55;5.05;;;10.10;97.20;;;;;;1727408;28;20208;-76
2022/11/29 08:08:26;;;;;;;6.30;5.72;;;10.10;97.20;;;;;;1727978;28;20211;-77
2022/11/29 08:09:17;;;;;;;5.28;4.88;;;10.10;97.20;;;;;;1728488;28;20208;-76
2022/11/29 08:10:11;;;;;;;5.30;4.80;;;10.10;97.20;;;;;;1728315;28;20202;-76
2022/11/29 08:11:08;;;;;;;5.85;5.25;;;10.10;97.20;;;;;;1728376;28;20211;-76
2022/11/29 08:12:00;;;;;;;6.00;5.40;;;10.10;97.20;;;;;;1728527;28;20208;-77
2022/11/29 08:12:51;;;;;;;5.90;5.30;;;10.10;97.20;;;;;;1728488;28;20200;-76
2022/11/29 08:13:43;;;;;;;5.80;5.30;;;10.10;97.20;;;;;;1728398;28;20207;-76
2022/11/29 08:14:33;;;;;;;5.60;5.10;;;10.10;97.20;;;;;;1728729;28;20211;-76
2022/11/29 08:15:25;;;;;;;6.50;5.10;;;10.10;97.20;;;;;;1728151;28;20198;-76
2022/11/29 08:16:16;;;;;;;6.35;5.80;;;10.10;97.20;;;;;;1728616;28;20211;-76
2022/11/29 08:17:08;;;;;;;6.40;5.03;;;10.20;97.20;;;;;;1728362;28;20196;-76
2022/11/29 08:18:00;;;;;;;6.40;5.90;;;10.20;97.20;;;;;;1728497;28;20209;-76
2022/11/29 08:18:51;;;;;;;5.53;5.03;;;10.10;97.20;;;;;;1728006;28;20291;-76
2022/11/29 08:19:42;;;;;;;6.53;5.90;;;10.10;97.20;;;;;;1728435;28;20212;-76
2022/11/29 08:20:35;;;;;;;8.63;6.03;;;10.10;97.20;;;;;;1728567;28;20220;-76
2022/11/29 08:21:26;;;;;;;6.60;6.00;;;10.20;97.20;;;;;;1728482;28;20669;-76
2022/11/29 08:22:18;;;;;;;6.20;5.70;;;10.10;97.20;;;;;;1728450;28;20659;-76
2022/11/29 08:23:11;;;;;;;6.65;6.05;;;10.20;97.20;;;;;;1728530;28;20579;-76
2022/11/29 08:24:03;;;;;;;6.68;6.07;;;10.20;97.20;;;;;;1728347;28;20200;-76
2022/11/29 08:24:53;;;;;;;7.22;6.53;;;10.20;97.20;;;;;;1728507;28;20204;-76
2022/11/29 08:25:45;;;;;;;5.93;5.43;;;10.20;97.20;;;;;;1728087;28;20223;-76
2022/11/29 08:26:36;;;;;;;6.70;6.10;;;10.20;97.20;;;;;;1728417;28;20212;-77
2022/11/29 08:27:28;;;;;;;6.17;5.57;;;10.20;97.20;;;;;;1728443;28;20200;-76
2022/11/29 08:28:18;;;;;;;6.43;5.78;;;10.20;97.20;;;;;;1728473;28;20204;-76
2022/11/29 08:29:10;;;;;;;6.63;6.13;;;10.20;97.20;;;;;;1728060;28;20200;-76
2022/11/29 08:30:01;;;;;;;7.40;6.78;;;10.20;97.20;;;;;;1728314;28;20216;-76
2022/11/29 08:31:01;;;;;;;7.53;6.83;;;10.20;97.20;;;;;;1727903;28;20315;-76
2022/11/29 08:31:52;;;;;;;6.90;6.30;;;10.20;97.20;;;;;;1728583;28;20197;-76
2022/11/29 08:32:44;;;;;;;7.35;6.75;;;10.20;97.20;;;;;;1728274;28;20437;-76
2022/11/29 08:33:35;;;;;;;8.00;7.20;;;10.20;97.20;;;;;;1728535;28;20212;-76
2022/11/29 08:34:27;;;;;;;8.10;7.40;;;10.20;97.20;;;;;;1728339;28;20232;-76
2022/11/29 08:35:21;;;;;;;7.68;6.97;;;10.20;97.20;;;;;;1728100;28;20204;-76
2022/11/29 08:36:15;;;;;;;8.10;7.40;;;10.20;97.20;;;;;;1728391;28;20208;-76
2022/11/29 08:37:07;;;;;;;7.47;6.88;;;10.20;97.20;;;;;;1728180;28;20205;-76
2022/11/29 08:37:58;;;;;;;7.35;6.55;;;10.20;97.20;;;;;;1728324;28;20200;-76
2022/11/29 08:38:49;;;;;;;7.77;7.17;;;10.20;97.20;;;;;;1727899;28;20204;-76
2022/11/29 08:39:40;;;;;;;7.30;6.60;;;10.20;97.20;;;;;;1728296;28;20592;-76
2022/11/29 08:40:32;;;;;;;6.50;6.00;;;10.20;97.20;;;;;;1728417;28;20404;-76
2022/11/29 08:41:23;;;;;;;7.78;7.18;;;10.20;97.20;;;;;;1728305;28;20284;-76
2022/11/29 08:42:15;;;;;;;6.67;6.10;;;10.20;97.20;;;;;;1728408;28;20205;-76
2022/11/29 08:43:05;;;;;;;7.80;7.10;;;10.20;97.20;;;;;;1728386;28;20458;-76
2022/11/29 08:43:57;;;;;;;8.10;6.83;;;10.20;97.20;;;;;;1728401;28;20200;-77
2022/11/29 08:44:48;;;;;;;8.95;6.75;;;10.30;97.20;;;;;;1728428;28;20205;-76
2022/11/29 08:45:39;;;;;;;8.10;7.30;;;10.20;97.20;;;;;;1727930;28;20749;-76
2022/11/29 08:47:36;;;;;;;8.32;7.53;;;10.30;97.20;;;;;;1728137;28;20569;-76
2022/11/29 08:48:28;;;;;;;8.60;7.80;;;10.30;97.20;;;;;;1727702;28;20215;-76
2022/11/29 08:49:19;;;;;;;9.13;7.68;;;10.30;97.20;;;;;;1728307;28;20212;-76
2022/11/29 08:50:13;;;;;;;8.33;7.13;;;10.30;97.20;;;;;;1728197;28;20204;-76
2022/11/29 08:51:05;;;;;;;7.70;7.00;;;10.30;97.20;;;;;;1728344;28;20208;-76
2022/11/29 08:54:13;;;;;;;7.10;6.50;;;10.30;97.20;;;;;;1728301;28;20684;-76
2022/11/29 08:55:05;;;;;;;7.88;7.18;;;10.30;97.20;;;;;;1728109;28;20208;-76
2022/11/29 08:55:59;;;;;;;8.90;7.65;;;10.30;97.20;;;;;;1727895;28;20203;-76
2022/11/29 08:56:51;;;;;;;8.85;8.05;;;10.30;97.20;;;;;;1728010;28;20230;-76
2022/11/29 08:57:42;;;;;;;8.02;7.32;;;10.30;97.20;;;;;;1728352;28;20240;-76
2022/11/29 08:58:33;;;;;;;8.53;7.73;;;10.30;97.20;;;;;;1727814;28;20209;-76
2022/11/29 08:59:24;;;;;;;8.82;7.95;;;10.30;97.20;;;;;;1728266;28;20200;-76
2022/11/29 09:00:17;;;;;;;7.80;7.07;;;10.30;97.20;;;;;;1728094;28;20283;-76
2022/11/29 09:01:12;;;;;;;8.05;7.35;;;10.30;97.20;;;;;;1728154;28;20212;-76
2022/11/29 09:02:04;;;;;;;9.40;7.05;;;10.30;97.20;;;;;;1728250;28;20204;-76
2022/11/29 09:03:58;;;;;;;7.57;6.88;;;10.30;97.20;;;;;;1728188;28;20207;-76
2022/11/29 09:04:09;;;;;;;8.48;7.68;;;10.40;97.20;;;;;;1728103;28;20212;-76
2022/11/29 09:05:00;;;;;;;8.32;7.63;;;10.40;97.20;;;;;;1728288;28;20587;-77
2022/11/29 09:05:52;;;;;;;7.60;7.00;;;10.40;97.20;;;;;;1727866;28;20627;-76
2022/11/29 09:06:43;;;;;;;8.65;7.22;;;10.40;97.20;;;;;;1727934;28;20204;-77
2022/11/29 09:07:36;;;;;;;8.33;7.63;;;10.40;97.20;;;;;;1728276;28;20707;-77
2022/11/29 09:08:27;;;;;;;7.72;7.03;;;10.40;97.20;;;;;;1727893;28;20654;-76
2022/11/29 09:09:19;;;;;;;7.70;6.37;;;10.40;97.20;;;;;;1728103;28;20748;-77
2022/11/29 09:10:10;;;;;;;6.22;5.72;;;10.40;97.20;;;;;;1728018;28;20208;-77
2022/11/29 09:11:07;;;;;;;6.63;6.13;;;10.40;97.20;;;;;;1728032;28;20570;-77
2022/11/29 09:11:58;;;;;;;6.40;5.80;;;10.40;97.20;;;;;;1728102;28;20204;-76
2022/11/29 09:12:50;;;;;;;6.70;6.10;;;10.40;97.20;;;;;;1728205;28;20196;-76
2022/11/29 09:13:41;;;;;;;5.90;5.38;;;10.40;97.20;;;;;;1728063;28;20601;-76
2022/11/29 09:14:33;;;;;;;6.20;5.65;;;10.40;97.20;;;;;;1728235;28;20649;-76
2022/11/29 09:15:24;;;;;;;6.85;6.20;;;10.40;97.20;;;;;;1727735;28;20201;-76
2022/11/29 09:16:18;;;;;;;5.20;4.90;;;10.40;97.20;;;;;;1728233;28;20204;-76
2022/11/29 09:17:09;;;;;;;5.20;4.80;;;10.40;97.20;;;;;;1727945;28;20454;-76
2022/11/29 09:18:00;;;;;;;5.37;4.97;;;10.40;97.20;;;;;;1728178;28;20208;-76
2022/11/29 09:18:54;;;;;;;4.97;4.63;;;10.40;97.20;;;;;;1727718;28;20941;-76
2022/11/29 09:19:45;;;;;;;5.03;4.70;;;10.40;97.20;;;;;;1727214;28;20621;-76
2022/11/29 09:20:37;;;;;;;6.50;5.20;;;10.40;97.20;;;;;;1728015;28;20588;-76
2022/11/29 09:21:29;;;;;;;5.30;4.90;;;10.40;97.20;;;;;;1728050;28;20196;-76
2022/11/29 09:22:21;;;;;;;4.70;4.30;;;10.40;97.20;;;;;;1728082;28;20207;-76
2022/11/29 09:23:14;;;;;;;4.80;4.47;;;10.40;97.20;;;;;;1728242;28;20211;-76
2022/11/29 09:24:08;;;;;;;4.88;4.47;;;10.40;97.20;;;;;;1728040;28;20204;-76
2022/11/29 09:24:58;;;;;;;5.03;4.63;;;10.40;97.20;;;;;;1728156;28;20697;-77
2022/11/29 09:25:50;;;;;;;5.13;4.73;;;10.40;97.20;;;;;;1727627;28;20632;-76
2022/11/29 09:26:45;;;;;;;5.70;5.20;;;10.40;97.20;;;;;;1727891;28;20204;-76
2022/11/29 09:27:36;;;;;;;6.10;5.35;;;10.50;97.20;;;;;;1727218;28;20204;-76
2022/11/29 09:28:28;;;;;;;5.40;4.90;;;10.50;97.20;;;;;;1727639;28;20211;-76
2022/11/29 09:29:19;;;;;;;5.13;4.70;;;10.50;97.20;;;;;;1727978;28;20673;-76
2022/11/29 09:30:11;;;;;;;4.63;4.23;;;10.50;97.20;;;;;;1727945;28;20768;-77
2022/11/29 09:31:06;;;;;;;5.47;4.70;;;10.50;97.20;;;;;;1728000;28;20447;-76
2022/11/29 09:31:58;;;;;;;5.28;4.88;;;10.50;97.20;;;;;;1728039;28;20659;-76
2022/11/29 09:32:48;;;;;;;5.50;5.00;;;10.50;97.20;;;;;;1728161;28;20582;-76
2022/11/29 09:33:40;;;;;;;4.80;4.50;;;10.50;97.20;;;;;;1727933;28;20196;-76
2022/11/29 09:34:31;;;;;;;4.93;4.53;;;10.50;97.20;;;;;;1728021;28;20243;-76
2022/11/29 09:35:23;;;;;;;5.00;4.60;;;10.50;97.20;;;;;;1727636;28;20255;-76
2022/11/29 09:36:14;;;;;;;4.93;4.53;;;10.50;97.20;;;;;;1728053;28;20216;-77
2022/11/29 09:37:05;;;;;;;4.60;4.30;;;10.50;97.20;;;;;;1727707;28;20280;-77
2022/11/29 09:37:56;;;;;;;4.45;4.05;;;10.50;97.20;;;;;;1728022;28;20446;-76
2022/11/29 09:38:49;;;;;;;4.40;4.10;;;10.50;97.20;;;;;;1727405;28;20204;-76
2022/11/29 09:39:41;;;;;;;3.70;3.45;;;10.50;97.20;;;;;;1727789;28;20440;-76
2022/11/29 09:40:38;;;;;;;3.83;3.53;;;10.50;97.20;;;;;;1727905;28;20603;-76
2022/11/29 09:42:10;;;;;;;3.75;3.45;;;10.50;97.20;;;;;;1727953;28;20275;-77
2022/11/29 09:43:07;;;;;;;4.10;3.80;;;10.50;97.20;;;;;;1727890;28;20216;-76
2022/11/29 09:44:05;;;;;;;3.22;3.03;;;10.50;97.20;;;;;;1727928;28;20604;-76
2022/11/29 09:45:05;;;;;;;3.40;3.10;;;10.50;97.20;;;;;;1727930;28;20204;-76
2022/11/29 09:46:02;;;;;;;4.03;3.63;;;10.50;97.20;;;;;;1727693;28;20212;-76
2022/11/29 09:47:03;;;;;;;4.10;3.80;;;10.50;97.20;;;;;;1727814;28;20659;-76
2022/11/29 09:48:08;;;;;;;3.60;3.33;;;10.50;97.20;;;;;;1727999;28;20213;-76
2022/11/29 09:49:13;;;;;;;3.53;3.22;;;10.50;97.20;;;;;;1727447;28;20200;-76
2022/11/29 09:50:26;;;;;;;3.45;3.15;;;10.50;97.20;;;;;;1727802;28;20209;-76
2022/11/29 09:51:24;;;;;;;3.35;3.05;;;10.50;97.20;;;;;;1727846;28;20228;-77
2022/11/29 09:52:24;;;;;;;3.03;2.83;;;10.50;97.20;;;;;;1727947;28;20235;-76
2022/11/29 09:53:27;;;;;;;3.03;2.83;;;10.50;97.20;;;;;;1728082;28;20192;-76
2022/11/29 09:54:27;;;;;;;3.08;2.88;;;10.50;97.20;;;;;;1727872;28;20212;-76
2022/11/29 09:55:54;;;;;;;3.30;3.10;;;10.50;97.20;;;;;;1727669;28;20220;-76
2022/11/29 09:56:49;;;;;;;3.63;3.42;;;10.40;97.20;;;;;;1724124;28;20274;-76
2022/11/29 09:57:42;;;;;;;4.03;3.72;;;10.40;97.20;;;;;;1727789;28;20678;-76
2022/11/29 09:58:42;;;;;;;3.50;3.20;;;10.40;97.20;;;;;;1727382;28;20189;-76
2022/11/29 09:59:39;;;;;;;3.50;3.20;;;10.40;97.20;;;;;;1727825;28;20197;-76
2022/11/29 10:00:46;;;;;;;4.63;4.22;;;10.40;97.20;;;;;;1727656;28;20228;-76
2022/11/29 10:01:41;;;;;;;4.28;3.92;;;10.40;97.20;;;;;;1727867;28;20210;-77
2022/11/29 10:02:38;;;;;;;4.80;4.40;;;10.40;97.20;;;;;;1727930;28;20205;-76
2022/11/29 10:03:35;;;;;;;4.07;3.78;;;10.40;97.20;;;;;;1727829;28;20192;-76
2022/11/29 10:04:31;;;;;;;4.57;4.18;;;10.40;97.20;;;;;;1727896;28;20360;-76
2022/11/29 10:05:28;;;;;;;5.35;4.40;;;10.40;97.20;;;;;;1727579;28;20561;-76
2022/11/29 10:06:23;;;;;;;4.78;4.38;;;10.40;97.20;;;;;;1727713;28;20235;-76
2022/11/29 10:07:20;;;;;;;5.20;4.70;;;10.40;97.20;;;;;;1727586;28;20231;-76
2022/11/29 10:08:18;;;;;;;5.45;5.05;;;10.40;97.20;;;;;;1727986;28;20193;-76
2022/11/29 10:09:17;;;;;;;4.95;4.53;;;10.40;97.20;;;;;;1727325;28;20207;-76
2022/11/29 10:10:16;;;;;;;5.88;5.38;;;10.40;97.20;;;;;;1727741;28;20185;-76
2022/11/29 10:11:19;;;;;;;5.55;5.15;;;10.50;97.20;;;;;;1727816;28;20208;-76
2022/11/29 10:12:16;;;;;;;5.13;4.72;;;10.50;97.20;;;;;;1727569;28;20631;-76
2022/11/29 10:13:18;;;;;;;4.30;4.00;;;10.50;97.20;;;;;;1727756;28;20576;-76
2022/11/29 10:14:15;;;;;;;5.22;4.82;;;10.50;97.20;;;;;;1727793;28;20689;-77
2022/11/29 10:15:12;;;;;;;6.32;4.82;;;10.50;97.20;;;;;;1727668;28;20201;-77
2022/11/29 10:16:11;;;;;;;5.50;5.10;;;10.50;97.20;;;;;;1727769;28;20323;-77
2022/11/29 10:17:12;;;;;;;6.72;5.35;;;10.50;97.20;;;;;;1727508;28;20207;-77
2022/11/29 10:18:12;;;;;;;7.20;5.88;;;10.60;97.20;;;;;;1727750;28;20205;-76
2022/11/29 10:19:08;;;;;;;6.90;6.30;;;10.60;97.20;;;;;;1727084;28;20204;-76
2022/11/29 10:20:05;;;;;;;6.30;5.70;;;10.60;97.20;;;;;;1727650;28;20693;-76
2022/11/29 10:21:05;;;;;;;8.45;6.32;;;10.60;97.20;;;;;;1727700;28;20272;-76
2022/11/29 10:22:02;;;;;;;8.07;7.28;;;10.60;97.20;;;;;;1727491;28;20196;-76
2022/11/29 10:22:56;;;;;;;8.57;7.68;;;10.60;97.20;;;;;;1727719;28;20231;-76
2022/11/29 10:23:50;;;;;;;8.95;7.90;;;10.60;97.20;;;;;;1727862;28;20692;-76
2022/11/29 10:24:44;;;;;;;9.52;8.50;;;10.60;97.20;;;;;;1727598;28;20207;-76
2022/11/29 10:25:44;;;;;;;10.15;8.88;;;10.60;97.20;;;;;;1727642;28;20705;-76
2022/11/29 10:26:36;;;;;;;9.15;6.80;;;10.60;97.20;;;;;;1727597;28;20228;-76
2022/11/29 10:27:29;;;;;;;6.85;6.25;;;10.70;97.20;;;;;;1727755;28;20615;-76
2022/11/29 10:28:23;;;;;;;7.22;6.60;;;10.70;97.20;;;;;;1727608;28;20204;-77
2022/11/29 10:29:16;;;;;;;7.38;6.78;;;10.70;97.20;;;;;;1727693;28;20227;-77
2022/11/29 10:30:13;;;;;;;7.10;6.40;;;10.70;97.20;;;;;;1727468;28;20208;-76
2022/11/29 10:31:16;;;;;;;6.20;5.60;;;10.70;97.20;;;;;;1727729;28;20207;-77
2022/11/29 10:32:12;;;;;;;6.63;6.10;;;10.70;97.20;;;;;;1727518;28;20648;-76
2022/11/29 10:33:15;;;;;;;7.50;6.80;;;10.70;97.20;;;;;;1727565;28;20201;-76
2022/11/29 10:34:11;;;;;;;7.18;6.47;;;10.70;97.20;;;;;;1727658;28;20196;-77
2022/11/29 10:35:11;;;;;;;6.30;5.70;;;10.80;97.20;;;;;;1727540;28;20209;-76
2022/11/29 10:36:11;;;;;;;6.13;5.63;;;10.80;97.20;;;;;;1727563;28;20205;-76
2022/11/29 10:37:04;;;;;;;8.52;7.63;;;10.80;97.20;;;;;;1727320;28;20573;-76
2022/11/29 10:37:59;;;;;;;5.78;5.30;;;10.80;97.20;;;;;;1727623;28;20258;-76
2022/11/29 10:38:52;;;;;;;6.30;5.80;;;10.80;97.20;;;;;;1727127;28;20204;-76
2022/11/29 10:39:46;;;;;;;6.45;5.90;;;10.80;97.20;;;;;;1727358;28;20572;-77
2022/11/29 10:40:42;;;;;;;6.47;5.97;;;10.80;97.20;;;;;;1727498;28;20227;-77
2022/11/29 10:41:34;;;;;;;6.30;5.72;;;10.80;97.20;;;;;;1727455;28;20212;-76
2022/11/29 10:43:38;;;;;;;6.75;6.25;;;10.80;97.20;;;;;;1727632;28;20184;-77
2022/11/29 10:44:32;;;;;;;6.55;6.05;;;10.80;97.20;;;;;;1727614;28;20211;-76
2022/11/29 10:45:29;;;;;;;6.82;6.22;;;10.80;97.20;;;;;;1727417;28;20205;-77
2022/11/29 10:46:28;;;;;;;6.60;6.10;;;10.80;97.20;;;;;;1727478;28;20237;-76
2022/11/29 10:47:18;;;;;;;7.22;6.63;;;10.80;97.20;;;;;;1727361;28;20591;-77
2022/11/29 10:48:12;;;;;;;7.70;7.00;;;10.80;97.20;;;;;;1727494;28;20201;-77
2022/11/29 10:49:05;;;;;;;6.72;6.13;;;10.80;97.20;;;;;;1726978;28;20222;-76
2022/11/29 10:49:57;;;;;;;7.28;6.65;;;10.80;97.20;;;;;;1727378;28;20208;-76
2022/11/29 10:50:50;;;;;;;7.82;7.05;;;10.80;97.20;;;;;;1727129;28;20212;-77
2022/11/29 10:51:42;;;;;;;7.53;6.93;;;10.80;97.20;;;;;;1727457;28;20232;-76
2022/11/29 10:52:33;;;;;;;7.47;6.85;;;10.80;97.20;;;;;;1727572;28;20196;-76
2022/11/29 10:53:29;;;;;;;7.53;6.88;;;10.80;97.20;;;;;;1727411;28;20717;-77
2022/11/29 10:54:33;;;;;;;7.60;6.90;;;10.80;97.20;;;;;;1727395;28;20209;-76
2022/11/29 10:55:27;;;;;;;7.40;6.80;;;10.80;97.20;;;;;;1727399;28;20208;-76
2022/11/29 10:56:23;;;;;;;7.00;6.40;;;10.70;97.20;;;;;;1727518;28;20212;-76
2022/11/29 10:57:17;;;;;;;7.10;6.50;;;10.70;97.20;;;;;;1727313;28;20243;-76
2022/11/29 10:58:14;;;;;;;7.43;6.75;;;10.70;97.20;;;;;;1727390;28;20216;-76
2022/11/29 10:59:07;;;;;;;7.80;7.00;;;10.70;97.20;;;;;;1727016;28;20189;-76
2022/11/29 11:00:00;;;;;;;8.52;7.72;;;10.70;97.20;;;;;;1727211;28;20219;-76